sensor_id;sensor_type;location;lat;lon;timestamp;pressure;altitude;pressure_sealevel;temperature
26158;BMP280;67284;44.782;10.282;2023-07-31T00:03:49;100535.06;;;25.70
26158;BMP280;67284;44.782;10.282;2023-07-31T00:08:41;100533.56;;;25.66
26158;BMP280;67284;44.782;10.282;2023-07-31T00:13:33;100545.28;;;25.62
26158;BMP280;67284;44.782;10.282;2023-07-31T00:18:25;100551.84;;;25.56
26158;BMP280;67284;44.782;10.282;2023-07-31T00:23:17;100547.75;;;25.52
26158;BMP280;67284;44.782;10.282;2023-07-31T00:28:08;100555.16;;;25.47
26158;BMP280;67284;44.782;10.282;2023-07-31T00:33:00;100563.47;;;25.41
26158;BMP280;67284;44.782;10.282;2023-07-31T00:37:54;100558.44;;;25.38
26158;BMP280;67284;44.782;10.282;2023-07-31T00:42:45;100566.56;;;25.35
26158;BMP280;67284;44.782;10.282;2023-07-31T00:47:38;100576.50;;;25.32
26158;BMP280;67284;44.782;10.282;2023-07-31T00:52:31;100581.13;;;25.28
26158;BMP280;67284;44.782;10.282;2023-07-31T00:57:22;100577.75;;;25.26
26158;BMP280;67284;44.782;10.282;2023-07-31T01:02:15;100592.91;;;25.23
26158;BMP280;67284;44.782;10.282;2023-07-31T01:07:27;100590.63;;;25.18
26158;BMP280;67284;44.782;10.282;2023-07-31T01:12:23;100600.31;;;25.18
26158;BMP280;67284;44.782;10.282;2023-07-31T01:17:16;100592.75;;;25.14
26158;BMP280;67284;44.782;10.282;2023-07-31T01:22:27;100598.44;;;25.08
26158;BMP280;67284;44.782;10.282;2023-07-31T01:27:24;100596.78;;;25.07
26158;BMP280;67284;44.782;10.282;2023-07-31T01:32:19;100597.81;;;25.04
26158;BMP280;67284;44.782;10.282;2023-07-31T01:37:11;100586.44;;;25.04
26158;BMP280;67284;44.782;10.282;2023-07-31T01:42:03;100586.53;;;25.02
26158;BMP280;67284;44.782;10.282;2023-07-31T01:46:55;100590.22;;;25.00
26158;BMP280;67284;44.782;10.282;2023-07-31T01:51:47;100570.00;;;25.00
26158;BMP280;67284;44.782;10.282;2023-07-31T01:56:39;100568.41;;;24.98
26158;BMP280;67284;44.782;10.282;2023-07-31T02:01:31;100570.22;;;24.97
26158;BMP280;67284;44.782;10.282;2023-07-31T02:06:23;100573.69;;;24.98
26158;BMP280;67284;44.782;10.282;2023-07-31T02:11:15;100571.91;;;24.98
26158;BMP280;67284;44.782;10.282;2023-07-31T02:16:07;100576.31;;;24.98
26158;BMP280;67284;44.782;10.282;2023-07-31T02:20:59;100579.06;;;24.96
26158;BMP280;67284;44.782;10.282;2023-07-31T02:25:51;100583.47;;;24.96
26158;BMP280;67284;44.782;10.282;2023-07-31T02:30:46;100576.53;;;24.95
26158;BMP280;67284;44.782;10.282;2023-07-31T02:35:38;100574.84;;;24.94
26158;BMP280;67284;44.782;10.282;2023-07-31T02:40:30;100576.75;;;24.92
26158;BMP280;67284;44.782;10.282;2023-07-31T02:45:21;100570.53;;;24.93
26158;BMP280;67284;44.782;10.282;2023-07-31T02:50:13;100571.38;;;24.93
26158;BMP280;67284;44.782;10.282;2023-07-31T02:55:06;100576.75;;;24.92
26158;BMP280;67284;44.782;10.282;2023-07-31T02:59:57;100580.31;;;24.91
26158;BMP280;67284;44.782;10.282;2023-07-31T03:04:49;100579.38;;;24.92
26158;BMP280;67284;44.782;10.282;2023-07-31T03:09:41;100583.69;;;24.93
26158;BMP280;67284;44.782;10.282;2023-07-31T03:14:33;100587.28;;;24.92
26158;BMP280;67284;44.782;10.282;2023-07-31T03:19:25;100590.84;;;24.91
26158;BMP280;67284;44.782;10.282;2023-07-31T03:24:17;100596.09;;;24.91
26158;BMP280;67284;44.782;10.282;2023-07-31T03:29:08;100588.31;;;24.89
26158;BMP280;67284;44.782;10.282;2023-07-31T03:34:00;100592.75;;;24.89
26158;BMP280;67284;44.782;10.282;2023-07-31T03:38:52;100584.00;;;24.88
26158;BMP280;67284;44.782;10.282;2023-07-31T03:43:47;100587.50;;;24.89
26158;BMP280;67284;44.782;10.282;2023-07-31T03:48:39;100590.00;;;24.90
26158;BMP280;67284;44.782;10.282;2023-07-31T03:53:31;100601.38;;;24.91
26158;BMP280;67284;44.782;10.282;2023-07-31T03:58:23;100598.63;;;24.92
26158;BMP280;67284;44.782;10.282;2023-07-31T04:03:15;100605.69;;;24.92
26158;BMP280;67284;44.782;10.282;2023-07-31T04:08:07;100601.38;;;24.91
26158;BMP280;67284;44.782;10.282;2023-07-31T04:12:59;100603.06;;;24.92
26158;BMP280;67284;44.782;10.282;2023-07-31T04:17:52;100601.38;;;24.91
26158;BMP280;67284;44.782;10.282;2023-07-31T04:22:44;100603.88;;;24.92
26158;BMP280;67284;44.782;10.282;2023-07-31T04:27:35;100605.59;;;24.93
26158;BMP280;67284;44.782;10.282;2023-07-31T04:32:27;100611.69;;;24.94
26158;BMP280;67284;44.782;10.282;2023-07-31T04:37:20;100612.66;;;24.93
26158;BMP280;67284;44.782;10.282;2023-07-31T04:42:12;100614.41;;;24.92
26158;BMP280;67284;44.782;10.282;2023-07-31T04:47:04;100611.78;;;24.92
26158;BMP280;67284;44.782;10.282;2023-07-31T04:51:56;100610.84;;;24.93
26158;BMP280;67284;44.782;10.282;2023-07-31T04:56:48;100605.59;;;24.93
26158;BMP280;67284;44.782;10.282;2023-07-31T05:01:40;100607.28;;;24.94
26158;BMP280;67284;44.782;10.282;2023-07-31T05:06:32;100612.53;;;24.94
26158;BMP280;67284;44.782;10.282;2023-07-31T05:11:24;100623.91;;;24.95
26158;BMP280;67284;44.782;10.282;2023-07-31T05:16:16;100623.78;;;24.96
26158;BMP280;67284;44.782;10.282;2023-07-31T05:21:08;100622.84;;;24.97
26158;BMP280;67284;44.782;10.282;2023-07-31T05:26:04;100626.31;;;24.98
26158;BMP280;67284;44.782;10.282;2023-07-31T05:31:03;100620.34;;;24.96
26158;BMP280;67284;44.782;10.282;2023-07-31T05:35:55;100630.00;;;24.95
26158;BMP280;67284;44.782;10.282;2023-07-31T05:40:47;100629.16;;;24.95
26158;BMP280;67284;44.782;10.282;2023-07-31T05:45:39;100639.59;;;24.96
26158;BMP280;67284;44.782;10.282;2023-07-31T05:50:32;100638.66;;;24.97
26158;BMP280;67284;44.782;10.282;2023-07-31T05:55:24;100641.28;;;24.97
26158;BMP280;67284;44.782;10.282;2023-07-31T06:00:18;100650.75;;;25.00
26158;BMP280;67284;44.782;10.282;2023-07-31T06:05:10;100660.31;;;25.01
26158;BMP280;67284;44.782;10.282;2023-07-31T06:10:02;100656.78;;;25.02
26158;BMP280;67284;44.782;10.282;2023-07-31T06:14:57;100664.69;;;25.02
26158;BMP280;67284;44.782;10.282;2023-07-31T06:19:51;100663.75;;;25.03
26158;BMP280;67284;44.782;10.282;2023-07-31T06:24:43;100663.31;;;25.09
26158;BMP280;67284;44.782;10.282;2023-07-31T06:29:35;100660.34;;;25.13
26158;BMP280;67284;44.782;10.282;2023-07-31T06:34:27;100670.66;;;25.16
26158;BMP280;67284;44.782;10.282;2023-07-31T06:39:18;100676.91;;;25.15
26158;BMP280;67284;44.782;10.282;2023-07-31T06:44:10;100680.16;;;25.18
26158;BMP280;67284;44.782;10.282;2023-07-31T06:49:02;100671.31;;;25.19
26158;BMP280;67284;44.782;10.282;2023-07-31T06:53:54;100674.88;;;25.18
26158;BMP280;67284;44.782;10.282;2023-07-31T06:58:46;100675.81;;;25.17
26158;BMP280;67284;44.782;10.282;2023-07-31T07:03:38;100674.97;;;25.17
26158;BMP280;67284;44.782;10.282;2023-07-31T07:08:30;100690.66;;;25.18
26158;BMP280;67284;44.782;10.282;2023-07-31T07:13:22;100695.94;;;25.18
26158;BMP280;67284;44.782;10.282;2023-07-31T07:18:13;100708.47;;;25.27
26158;BMP280;67284;44.782;10.282;2023-07-31T07:23:05;100717.72;;;25.70
26158;BMP280;67284;44.782;10.282;2023-07-31T07:27:57;100717.75;;;25.93
26158;BMP280;67284;44.782;10.282;2023-07-31T07:32:49;100705.56;;;25.80
26158;BMP280;67284;44.782;10.282;2023-07-31T07:37:41;100703.56;;;26.07
26158;BMP280;67284;44.782;10.282;2023-07-31T07:42:33;100685.06;;;26.42
26158;BMP280;67284;44.782;10.282;2023-07-31T07:47:25;100692.47;;;26.72
26158;BMP280;67284;44.782;10.282;2023-07-31T07:52:19;100687.38;;;26.92
26158;BMP280;67284;44.782;10.282;2023-07-31T07:57:11;100684.72;;;26.92
26158;BMP280;67284;44.782;10.282;2023-07-31T08:02:03;100685.47;;;27.05
26158;BMP280;67284;44.782;10.282;2023-07-31T08:06:55;100687.78;;;27.09
26158;BMP280;67284;44.782;10.282;2023-07-31T08:11:47;100682.34;;;27.22
26158;BMP280;67284;44.782;10.282;2023-07-31T08:16:39;100691.84;;;27.35
26158;BMP280;67284;44.782;10.282;2023-07-31T08:21:32;100688.84;;;27.28
26158;BMP280;67284;44.782;10.282;2023-07-31T08:26:24;100676.25;;;27.21
26158;BMP280;67284;44.782;10.282;2023-07-31T08:31:16;100668.91;;;27.35
26158;BMP280;67284;44.782;10.282;2023-07-31T08:36:08;100664.09;;;27.51
26158;BMP280;67284;44.782;10.282;2023-07-31T08:41:00;100666.78;;;27.62
26158;BMP280;67284;44.782;10.282;2023-07-31T08:45:53;100664.03;;;27.95
26158;BMP280;67284;44.782;10.282;2023-07-31T08:50:46;100666.97;;;28.23
26158;BMP280;67284;44.782;10.282;2023-07-31T08:55:41;100659.63;;;28.47
26158;BMP280;67284;44.782;10.282;2023-07-31T09:00:33;100648.03;;;28.79
26158;BMP280;67284;44.782;10.282;2023-07-31T09:05:26;100648.78;;;29.11
26158;BMP280;67284;44.782;10.282;2023-07-31T09:10:19;100647.44;;;29.26
26158;BMP280;67284;44.782;10.282;2023-07-31T09:15:11;100655.06;;;29.40
26158;BMP280;67284;44.782;10.282;2023-07-31T09:20:22;100645.34;;;29.49
26158;BMP280;67284;44.782;10.282;2023-07-31T09:25:17;100636.72;;;29.57
26158;BMP280;67284;44.782;10.282;2023-07-31T09:30:10;100630.03;;;29.62
26158;BMP280;67284;44.782;10.282;2023-07-31T09:35:13;100631.84;;;29.71
26158;BMP280;67284;44.782;10.282;2023-07-31T09:40:05;100632.00;;;29.79
26158;BMP280;67284;44.782;10.282;2023-07-31T09:45:08;100630.03;;;29.81
26158;BMP280;67284;44.782;10.282;2023-07-31T09:50:00;100628.16;;;29.83
26158;BMP280;67284;44.782;10.282;2023-07-31T09:54:52;100623.25;;;29.88
26158;BMP280;67284;44.782;10.282;2023-07-31T09:59:47;100624.22;;;29.87
26158;BMP280;67284;44.782;10.282;2023-07-31T10:04:39;100622.41;;;29.88
26158;BMP280;67284;44.782;10.282;2023-07-31T10:09:31;100610.78;;;29.79
26158;BMP280;67284;44.782;10.282;2023-07-31T10:14:26;100609.25;;;29.77
26158;BMP280;67284;44.782;10.282;2023-07-31T10:19:18;100608.81;;;29.81
26158;BMP280;67284;44.782;10.282;2023-07-31T10:24:11;100604.41;;;29.91
26158;BMP280;67284;44.782;10.282;2023-07-31T10:29:05;100600.94;;;30.00
26158;BMP280;67284;44.782;10.282;2023-07-31T10:33:58;100586.66;;;30.10
26158;BMP280;67284;44.782;10.282;2023-07-31T10:38:51;100586.00;;;30.08
26158;BMP280;67284;44.782;10.282;2023-07-31T10:43:45;100592.41;;;30.15
26158;BMP280;67284;44.782;10.282;2023-07-31T10:48:38;100582.91;;;30.22
26158;BMP280;67284;44.782;10.282;2023-07-31T10:53:32;100570.47;;;30.23
26158;BMP280;67284;44.782;10.282;2023-07-31T10:58:25;100570.75;;;30.29
26158;BMP280;67284;44.782;10.282;2023-07-31T11:03:18;100574.91;;;30.32
26158;BMP280;67284;44.782;10.282;2023-07-31T11:08:17;100572.97;;;30.15
26158;BMP280;67284;44.782;10.282;2023-07-31T11:13:09;100567.56;;;29.98
26158;BMP280;67284;44.782;10.282;2023-07-31T11:18:02;100569.22;;;29.89
26158;BMP280;67284;44.782;10.282;2023-07-31T11:23:06;100565.75;;;29.89
26158;BMP280;67284;44.782;10.282;2023-07-31T11:28:12;100552.44;;;29.79
26158;BMP280;67284;44.782;10.282;2023-07-31T11:33:05;100539.09;;;29.90
26158;BMP280;67284;44.782;10.282;2023-07-31T11:37:58;100547.16;;;30.07
26158;BMP280;67284;44.782;10.282;2023-07-31T11:42:50;100533.75;;;30.28
26158;BMP280;67284;44.782;10.282;2023-07-31T11:47:42;100538.47;;;30.34
26158;BMP280;67284;44.782;10.282;2023-07-31T11:52:37;100518.22;;;30.42
26158;BMP280;67284;44.782;10.282;2023-07-31T11:57:31;100513.19;;;30.39
26158;BMP280;67284;44.782;10.282;2023-07-31T12:02:23;100519.56;;;30.55
26158;BMP280;67284;44.782;10.282;2023-07-31T12:07:15;100507.00;;;30.84
26158;BMP280;67284;44.782;10.282;2023-07-31T12:12:08;100501.91;;;31.00
26158;BMP280;67284;44.782;10.282;2023-07-31T12:17:04;100498.59;;;30.89
26158;BMP280;67284;44.782;10.282;2023-07-31T12:21:56;100488.25;;;30.95
26158;BMP280;67284;44.782;10.282;2023-07-31T12:26:48;100478.09;;;31.08
26158;BMP280;67284;44.782;10.282;2023-07-31T12:31:41;100465.50;;;31.10
26158;BMP280;67284;44.782;10.282;2023-07-31T12:36:34;100458.88;;;30.97
26158;BMP280;67284;44.782;10.282;2023-07-31T12:41:28;100456.38;;;30.95
26158;BMP280;67284;44.782;10.282;2023-07-31T12:46:21;100437.19;;;31.18
26158;BMP280;67284;44.782;10.282;2023-07-31T12:51:13;100445.19;;;31.36
26158;BMP280;67284;44.782;10.282;2023-07-31T12:56:05;100440.22;;;31.23
26158;BMP280;67284;44.782;10.282;2023-07-31T13:00:57;100424.50;;;30.95
26158;BMP280;67284;44.782;10.282;2023-07-31T13:05:50;100413.66;;;31.06
26158;BMP280;67284;44.782;10.282;2023-07-31T13:10:42;100415.09;;;31.18
26158;BMP280;67284;44.782;10.282;2023-07-31T13:15:33;100404.28;;;31.37
26158;BMP280;67284;44.782;10.282;2023-07-31T13:20:25;100405.31;;;31.53
26158;BMP280;67284;44.782;10.282;2023-07-31T13:25:17;100395.66;;;31.69
26158;BMP280;67284;44.782;10.282;2023-07-31T13:30:09;100392.72;;;31.80
26158;BMP280;67284;44.782;10.282;2023-07-31T13:35:01;100389.53;;;31.77
26158;BMP280;67284;44.782;10.282;2023-07-31T13:39:53;100383.75;;;31.81
26158;BMP280;67284;44.782;10.282;2023-07-31T13:44:46;100371.81;;;31.85
26158;BMP280;67284;44.782;10.282;2023-07-31T13:49:38;100367.19;;;31.87
26158;BMP280;67284;44.782;10.282;2023-07-31T13:54:30;100358.09;;;31.72
26158;BMP280;67284;44.782;10.282;2023-07-31T13:59:22;100364.47;;;31.79
26158;BMP280;67284;44.782;10.282;2023-07-31T14:04:14;100363.00;;;31.85
26158;BMP280;67284;44.782;10.282;2023-07-31T14:09:06;100363.72;;;31.95
26158;BMP280;67284;44.782;10.282;2023-07-31T14:13:58;100362.91;;;31.94
26158;BMP280;67284;44.782;10.282;2023-07-31T14:18:50;100353.63;;;31.98
26158;BMP280;67284;44.782;10.282;2023-07-31T14:23:42;100349.66;;;32.02
26158;BMP280;67284;44.782;10.282;2023-07-31T14:28:34;100340.31;;;31.98
26158;BMP280;67284;44.782;10.282;2023-07-31T14:33:26;100328.38;;;32.02
26158;BMP280;67284;44.782;10.282;2023-07-31T14:38:18;100328.47;;;32.18
26158;BMP280;67284;44.782;10.282;2023-07-31T14:43:10;100334.28;;;32.21
26158;BMP280;67284;44.782;10.282;2023-07-31T14:48:02;100330.78;;;32.21
26158;BMP280;67284;44.782;10.282;2023-07-31T14:52:54;100316.78;;;32.19
26158;BMP280;67284;44.782;10.282;2023-07-31T14:57:46;100313.16;;;32.20
26158;BMP280;67284;44.782;10.282;2023-07-31T15:02:38;100305.81;;;32.14
26158;BMP280;67284;44.782;10.282;2023-07-31T15:07:32;100295.81;;;32.08
26158;BMP280;67284;44.782;10.282;2023-07-31T15:12:24;100307.63;;;32.13
26158;BMP280;67284;44.782;10.282;2023-07-31T15:17:17;100295.88;;;32.24
26158;BMP280;67284;44.782;10.282;2023-07-31T15:22:09;100298.69;;;32.22
26158;BMP280;67284;44.782;10.282;2023-07-31T15:27:01;100303.16;;;32.22
26158;BMP280;67284;44.782;10.282;2023-07-31T15:31:54;100302.19;;;32.23
26158;BMP280;67284;44.782;10.282;2023-07-31T15:36:47;100297.88;;;32.30
26158;BMP280;67284;44.782;10.282;2023-07-31T15:41:40;100293.25;;;32.40
26158;BMP280;67284;44.782;10.282;2023-07-31T15:46:32;100301.53;;;32.29
26158;BMP280;67284;44.782;10.282;2023-07-31T15:51:24;100293.88;;;32.26
26158;BMP280;67284;44.782;10.282;2023-07-31T15:56:17;100302.19;;;32.23
26158;BMP280;67284;44.782;10.282;2023-07-31T16:01:08;100289.00;;;32.13
26158;BMP280;67284;44.782;10.282;2023-07-31T16:06:00;100299.16;;;32.10
26158;BMP280;67284;44.782;10.282;2023-07-31T16:10:52;100292.19;;;32.17
26158;BMP280;67284;44.782;10.282;2023-07-31T16:15:44;100287.53;;;32.19
26158;BMP280;67284;44.782;10.282;2023-07-31T16:20:36;100295.13;;;32.06
26158;BMP280;67284;44.782;10.282;2023-07-31T16:25:28;100295.50;;;32.11
26158;BMP280;67284;44.782;10.282;2023-07-31T16:30:20;100281.88;;;32.22
26158;BMP280;67284;44.782;10.282;2023-07-31T16:35:14;100283.41;;;32.32
26158;BMP280;67284;44.782;10.282;2023-07-31T16:40:07;100287.94;;;32.32
26158;BMP280;67284;44.782;10.282;2023-07-31T16:44:59;100285.88;;;32.18
26158;BMP280;67284;44.782;10.282;2023-07-31T16:49:50;100278.69;;;32.11
26158;BMP280;67284;44.782;10.282;2023-07-31T16:54:43;100285.56;;;32.21
26158;BMP280;67284;44.782;10.282;2023-07-31T16:59:34;100279.06;;;32.23
26158;BMP280;67284;44.782;10.282;2023-07-31T17:04:27;100286.25;;;32.31
26158;BMP280;67284;44.782;10.282;2023-07-31T17:09:19;100271.28;;;32.38
26158;BMP280;67284;44.782;10.282;2023-07-31T17:14:11;100271.72;;;32.10
26158;BMP280;67284;44.782;10.282;2023-07-31T17:19:06;100270.56;;;32.20
26158;BMP280;67284;44.782;10.282;2023-07-31T17:23:58;100262.25;;;32.23
26158;BMP280;67284;44.782;10.282;2023-07-31T17:28:51;100260.22;;;32.01
26158;BMP280;67284;44.782;10.282;2023-07-31T17:33:43;100265.50;;;31.25
26158;BMP280;67284;44.782;10.282;2023-07-31T17:38:35;100253.09;;;30.74
26158;BMP280;67284;44.782;10.282;2023-07-31T17:43:27;100256.13;;;30.35
26158;BMP280;67284;44.782;10.282;2023-07-31T17:48:19;100248.66;;;30.03
26158;BMP280;67284;44.782;10.282;2023-07-31T17:53:11;100253.47;;;29.81
26158;BMP280;67284;44.782;10.282;2023-07-31T17:58:03;100246.44;;;29.63
26158;BMP280;67284;44.782;10.282;2023-07-31T18:02:55;100256.69;;;29.48
26158;BMP280;67284;44.782;10.282;2023-07-31T18:07:47;100259.50;;;29.38
26158;BMP280;67284;44.782;10.282;2023-07-31T18:12:39;100271.13;;;29.27
26158;BMP280;67284;44.782;10.282;2023-07-31T18:17:30;100273.47;;;29.21
26158;BMP280;67284;44.782;10.282;2023-07-31T18:22:22;100275.00;;;29.14
26158;BMP280;67284;44.782;10.282;2023-07-31T18:27:14;100276.69;;;29.05
26158;BMP280;67284;44.782;10.282;2023-07-31T18:32:06;100293.44;;;28.96
26158;BMP280;67284;44.782;10.282;2023-07-31T18:37:00;100296.06;;;28.87
26158;BMP280;67284;44.782;10.282;2023-07-31T18:41:52;100293.25;;;28.79
26158;BMP280;67284;44.782;10.282;2023-07-31T18:46:44;100290.22;;;28.74
26158;BMP280;67284;44.782;10.282;2023-07-31T18:51:36;100301.31;;;28.68
26158;BMP280;67284;44.782;10.282;2023-07-31T18:56:30;100306.19;;;28.63
26158;BMP280;67284;44.782;10.282;2023-07-31T19:01:23;100312.88;;;28.58
26158;BMP280;67284;44.782;10.282;2023-07-31T19:06:15;100320.50;;;28.51
26158;BMP280;67284;44.782;10.282;2023-07-31T19:11:07;100321.06;;;28.45
26158;BMP280;67284;44.782;10.282;2023-07-31T19:16:03;100332.88;;;28.41
26158;BMP280;67284;44.782;10.282;2023-07-31T19:20:55;100346.97;;;28.42
26158;BMP280;67284;44.782;10.282;2023-07-31T19:25:47;100350.72;;;28.39
26158;BMP280;67284;44.782;10.282;2023-07-31T19:30:40;100349.44;;;28.34
26158;BMP280;67284;44.782;10.282;2023-07-31T19:35:32;100348.16;;;28.29
26158;BMP280;67284;44.782;10.282;2023-07-31T19:40:23;100347.97;;;28.21
26158;BMP280;67284;44.782;10.282;2023-07-31T19:45:17;100345.19;;;28.13
26158;BMP280;67284;44.782;10.282;2023-07-31T19:50:09;100347.34;;;28.08
26158;BMP280;67284;44.782;10.282;2023-07-31T19:55:01;100346.78;;;28.04
26158;BMP280;67284;44.782;10.282;2023-07-31T19:59:53;100349.69;;;28.01
26158;BMP280;67284;44.782;10.282;2023-07-31T20:04:46;100347.28;;;27.98
26158;BMP280;67284;44.782;10.282;2023-07-31T20:09:38;100352.03;;;27.95
26158;BMP280;67284;44.782;10.282;2023-07-31T20:14:30;100350.75;;;27.89
26158;BMP280;67284;44.782;10.282;2023-07-31T20:19:24;100344.19;;;27.84
26158;BMP280;67284;44.782;10.282;2023-07-31T20:24:16;100339.16;;;27.81
26158;BMP280;67284;44.782;10.282;2023-07-31T20:29:08;100332.31;;;27.79
26158;BMP280;67284;44.782;10.282;2023-07-31T20:33:59;100318.53;;;27.75
26158;BMP280;67284;44.782;10.282;2023-07-31T20:38:51;100315.44;;;27.70
26158;BMP280;67284;44.782;10.282;2023-07-31T20:43:43;100331.44;;;27.69
26158;BMP280;67284;44.782;10.282;2023-07-31T20:48:35;100316.66;;;27.66
26158;BMP280;67284;44.782;10.282;2023-07-31T20:53:27;100324.84;;;27.63
26158;BMP280;67284;44.782;10.282;2023-07-31T20:58:19;100322.47;;;27.60
26158;BMP280;67284;44.782;10.282;2023-07-31T21:03:11;100317.47;;;27.57
26158;BMP280;67284;44.782;10.282;2023-07-31T21:08:03;100321.19;;;27.55
26158;BMP280;67284;44.782;10.282;2023-07-31T21:12:56;100323.97;;;27.53
26158;BMP280;67284;44.782;10.282;2023-07-31T21:17:49;100318.09;;;27.50
26158;BMP280;67284;44.782;10.282;2023-07-31T21:22:41;100314.72;;;27.48
26158;BMP280;67284;44.782;10.282;2023-07-31T21:27:37;100309.69;;;27.45
26158;BMP280;67284;44.782;10.282;2023-07-31T21:32:29;100303.84;;;27.41
26158;BMP280;67284;44.782;10.282;2023-07-31T21:37:20;100294.38;;;27.39
26158;BMP280;67284;44.782;10.282;2023-07-31T21:42:12;100295.47;;;27.36
26158;BMP280;67284;44.782;10.282;2023-07-31T21:47:05;100287.81;;;27.33
26158;BMP280;67284;44.782;10.282;2023-07-31T21:51:57;100281.09;;;27.29
26158;BMP280;67284;44.782;10.282;2023-07-31T21:56:49;100279.69;;;27.26
26158;BMP280;67284;44.782;10.282;2023-07-31T22:01:41;100279.00;;;27.24
26158;BMP280;67284;44.782;10.282;2023-07-31T22:06:33;100276.59;;;27.21
26158;BMP280;67284;44.782;10.282;2023-07-31T22:11:25;100272.28;;;27.20
26158;BMP280;67284;44.782;10.282;2023-07-31T22:16:16;100265.56;;;27.16
26158;BMP280;67284;44.782;10.282;2023-07-31T22:21:09;100261.38;;;27.13
26158;BMP280;67284;44.782;10.282;2023-07-31T22:26:01;100271.25;;;27.11
26158;BMP280;67284;44.782;10.282;2023-07-31T22:30:53;100267.19;;;27.07
26158;BMP280;67284;44.782;10.282;2023-07-31T22:35:48;100265.63;;;27.05
26158;BMP280;67284;44.782;10.282;2023-07-31T22:40:40;100263.25;;;27.02
26158;BMP280;67284;44.782;10.282;2023-07-31T22:45:32;100270.47;;;27.00
26158;BMP280;67284;44.782;10.282;2023-07-31T22:50:24;100256.69;;;26.96
26158;BMP280;67284;44.782;10.282;2023-07-31T22:55:16;100242.16;;;26.91
26158;BMP280;67284;44.782;10.282;2023-07-31T23:00:08;100235.47;;;26.87
26158;BMP280;67284;44.782;10.282;2023-07-31T23:05:00;100232.84;;;26.87
26158;BMP280;67284;44.782;10.282;2023-07-31T23:09:52;100240.03;;;26.85
26158;BMP280;67284;44.782;10.282;2023-07-31T23:14:46;100240.03;;;26.85
26158;BMP280;67284;44.782;10.282;2023-07-31T23:19:38;100237.41;;;26.85
26158;BMP280;67284;44.782;10.282;2023-07-31T23:24:30;100228.06;;;26.81
26158;BMP280;67284;44.782;10.282;2023-07-31T23:29:21;100231.81;;;26.78
26158;BMP280;67284;44.782;10.282;2023-07-31T23:34:13;100221.59;;;26.74
26158;BMP280;67284;44.782;10.282;2023-07-31T23:39:05;100211.31;;;26.71
26158;BMP280;67284;44.782;10.282;2023-07-31T23:43:58;100209.78;;;26.69
26158;BMP280;67284;44.782;10.282;2023-07-31T23:48:50;100209.19;;;26.65
26158;BMP280;67284;44.782;10.282;2023-07-31T23:53:42;100204.16;;;26.62
26158;BMP280;67284;44.782;10.282;2023-07-31T23:58:34;100189.28;;;26.61
